Time;durP1;ratioP1;P1;durP2;ratioP2;P2;SDS_P1;SDS_P2;PMS_P1;PMS_P2;Temp;Humidity;BMP_temperature;BMP_pressure;BME280_temperature;BME280_humidity;BME280_pressure;Samples;Min_cycle;Max_cycle;Signal;HPM_P1;HPM_P2
2022/10/13 00:01:58;;;;;;;0.40;0.40;;;8.10;99.90;;;;;;5073012;28;20465;-67
2022/10/13 00:04:46;;;;;;;0.40;0.40;;;8.00;99.90;;;;;;5072700;28;20426;-67
2022/10/13 00:07:36;;;;;;;3.07;2.50;;;8.00;99.90;;;;;;5077630;28;20538;-67
2022/10/13 00:10:24;;;;;;;0.40;0.40;;;8.00;99.90;;;;;;5076392;28;20419;-67
2022/10/13 00:13:13;;;;;;;0.40;0.40;;;8.00;99.90;;;;;;5073417;28;20793;-67
2022/10/13 00:16:02;;;;;;;0.40;0.40;;;8.00;99.90;;;;;;5072824;28;20810;-67
2022/10/13 00:18:50;;;;;;;0.40;0.40;;;8.00;99.90;;;;;;5072552;28;20439;-68
2022/10/13 00:21:38;;;;;;;0.40;0.40;;;7.90;99.90;;;;;;5073925;28;21014;-67
2022/10/13 00:24:28;;;;;;;0.40;0.40;;;7.90;99.90;;;;;;5072176;28;20419;-67
2022/10/13 00:27:16;;;;;;;0.40;0.40;;;7.90;99.90;;;;;;5073316;28;20466;-67
2022/10/13 00:30:04;;;;;;;0.40;0.40;;;7.90;99.90;;;;;;5072108;28;20427;-67
2022/10/13 00:32:52;;;;;;;0.40;0.40;;;7.90;99.90;;;;;;5073084;28;20823;-67
2022/10/13 00:35:42;;;;;;;1.40;1.33;;;7.80;99.90;;;;;;5072600;28;20423;-68
2022/10/13 00:38:29;;;;;;;0.40;0.40;;;7.80;99.90;;;;;;5072238;28;20453;-67
2022/10/13 00:41:20;;;;;;;0.40;0.40;;;7.80;99.90;;;;;;5072369;28;20514;-67
2022/10/13 00:44:41;;;;;;;0.40;0.40;;;7.80;99.90;;;;;;5071859;28;20467;-67
2022/10/13 00:47:35;;;;;;;0.40;0.40;;;7.80;99.90;;;;;;5073229;28;20897;-68
2022/10/13 00:50:27;;;;;;;0.50;0.50;;;7.80;99.90;;;;;;5071454;28;20788;-67
2022/10/13 00:53:18;;;;;;;0.40;0.40;;;7.80;99.90;;;;;;5071827;28;20420;-67
2022/10/13 00:56:09;;;;;;;0.40;0.40;;;7.80;99.90;;;;;;5072880;28;20518;-67
2022/10/13 00:59:00;;;;;;;0.40;0.40;;;7.90;99.90;;;;;;5071708;28;20439;-68
2022/10/13 01:01:48;;;;;;;0.67;0.67;;;7.90;99.90;;;;;;5072022;28;20428;-68
2022/10/13 01:04:40;;;;;;;0.40;0.40;;;7.90;99.90;;;;;;5071963;28;20425;-67
2022/10/13 01:07:29;;;;;;;0.40;0.40;;;8.00;99.90;;;;;;5072206;28;20812;-67
2022/10/13 01:10:24;;;;;;;0.40;0.40;;;8.00;99.90;;;;;;5071119;28;20468;-67
2022/10/13 01:13:20;;;;;;;0.40;0.40;;;8.00;99.90;;;;;;5071693;28;20430;-67
2022/10/13 01:16:13;;;;;;;0.40;0.40;;;8.00;99.90;;;;;;5069283;28;20449;-67
2022/10/13 01:19:12;;;;;;;0.40;0.40;;;8.00;99.90;;;;;;5069179;28;20526;-68
2022/10/13 01:22:14;;;;;;;0.40;0.40;;;8.00;99.90;;;;;;5070320;28;20875;-67
2022/10/13 01:25:14;;;;;;;0.40;0.40;;;8.00;99.90;;;;;;5071206;28;20938;-67
2022/10/13 01:28:23;;;;;;;0.40;0.40;;;7.90;99.90;;;;;;5072053;28;20975;-67
2022/10/13 01:31:20;;;;;;;0.40;0.40;;;7.90;99.90;;;;;;5070753;28;20431;-67
2022/10/13 01:34:15;;;;;;;0.40;0.40;;;7.90;99.90;;;;;;5071128;28;20510;-67
2022/10/13 01:37:07;;;;;;;0.40;0.40;;;7.90;99.90;;;;;;5070982;28;20434;-67
2022/10/13 01:40:02;;;;;;;0.40;0.40;;;7.90;99.90;;;;;;5071119;28;20807;-67
2022/10/13 01:42:57;;;;;;;0.40;0.40;;;7.90;99.90;;;;;;5070555;28;20719;-68
2022/10/13 01:45:52;;;;;;;0.40;0.40;;;7.80;99.90;;;;;;5071147;28;20554;-67
2022/10/13 01:48:44;;;;;;;0.40;0.40;;;7.80;99.90;;;;;;5071181;28;20447;-67
2022/10/13 01:51:33;;;;;;;0.40;0.40;;;7.80;99.90;;;;;;5070977;28;20473;-67
2022/10/13 01:54:21;;;;;;;0.40;0.40;;;7.80;99.90;;;;;;5071856;28;20423;-67
2022/10/13 01:57:30;;;;;;;0.40;0.40;;;7.70;99.90;;;;;;5071561;28;20948;-67
2022/10/13 02:00:20;;;;;;;0.40;0.40;;;7.80;99.90;;;;;;5072687;28;20505;-67
2022/10/13 02:03:17;;;;;;;0.40;0.40;;;7.80;99.90;;;;;;5070400;28;20466;-67
2022/10/13 02:06:17;;;;;;;0.40;0.40;;;7.80;99.90;;;;;;5070807;28;20999;-67
2022/10/13 02:09:13;;;;;;;0.40;0.40;;;7.80;99.90;;;;;;5071810;28;20439;-68
2022/10/13 02:12:07;;;;;;;0.40;0.40;;;7.80;99.90;;;;;;5071765;28;20435;-67
2022/10/13 02:14:56;;;;;;;0.40;0.40;;;7.70;99.90;;;;;;5071925;28;20451;-67
2022/10/13 02:17:44;;;;;;;0.40;0.40;;;7.80;99.90;;;;;;5071573;28;21050;-68
2022/10/13 02:20:33;;;;;;;0.40;0.40;;;7.70;99.90;;;;;;5070599;28;20507;-67
2022/10/13 02:23:23;;;;;;;0.40;0.40;;;7.60;99.90;;;;;;5070284;28;20554;-67
2022/10/13 02:26:12;;;;;;;0.40;0.40;;;7.50;99.90;;;;;;5071614;28;20817;-67
2022/10/13 02:29:07;;;;;;;0.40;0.40;;;7.50;99.90;;;;;;5072054;28;20451;-68
2022/10/13 02:31:55;;;;;;;0.40;0.40;;;7.40;99.90;;;;;;5070705;28;20513;-67
2022/10/13 02:34:43;;;;;;;0.40;0.40;;;7.40;99.90;;;;;;5071538;28;20810;-68
2022/10/13 02:37:31;;;;;;;0.40;0.40;;;7.40;99.90;;;;;;5070528;28;20838;-68
2022/10/13 02:40:20;;;;;;;0.40;0.40;;;7.40;99.90;;;;;;5070545;28;20514;-68
2022/10/13 02:43:08;;;;;;;0.40;0.40;;;7.40;99.90;;;;;;5070010;28;20419;-68
2022/10/13 02:45:56;;;;;;;0.40;0.40;;;7.40;99.90;;;;;;5071088;28;20894;-68
2022/10/13 02:48:44;;;;;;;0.40;0.40;;;7.40;99.90;;;;;;5070729;28;20446;-68
2022/10/13 02:51:33;;;;;;;0.40;0.40;;;7.30;99.90;;;;;;5070543;28;20506;-68
2022/10/13 02:54:27;;;;;;;0.40;0.40;;;7.30;99.90;;;;;;5071292;28;20832;-68
2022/10/13 02:57:17;;;;;;;0.40;0.40;;;7.20;99.90;;;;;;5071347;28;20423;-68
2022/10/13 03:00:06;;;;;;;0.40;0.40;;;7.20;99.90;;;;;;5071389;28;20560;-68
2022/10/13 03:02:55;;;;;;;0.40;0.40;;;7.20;99.90;;;;;;5070146;28;20422;-69
2022/10/13 03:05:44;;;;;;;0.40;0.40;;;7.30;99.90;;;;;;5069951;28;20499;-68
2022/10/13 03:08:33;;;;;;;0.40;0.40;;;7.20;99.90;;;;;;5070369;28;20971;-68
2022/10/13 03:11:21;;;;;;;0.40;0.40;;;7.30;99.90;;;;;;5071681;28;20437;-68
2022/10/13 03:14:10;;;;;;;0.40;0.40;;;7.40;99.90;;;;;;5074162;28;20426;-68
2022/10/13 03:16:58;;;;;;;0.40;0.40;;;7.40;99.90;;;;;;5073818;28;20502;-68
2022/10/13 03:19:47;;;;;;;0.40;0.40;;;7.30;99.90;;;;;;5074082;28;20506;-68
2022/10/13 03:22:35;;;;;;;1.00;1.00;;;7.30;99.90;;;;;;5075738;28;20506;-68
2022/10/13 03:25:23;;;;;;;0.40;0.40;;;7.40;99.90;;;;;;5073568;28;20560;-67
2022/10/13 03:28:11;;;;;;;0.40;0.40;;;7.50;99.90;;;;;;5074899;28;20557;-68
2022/10/13 03:31:04;;;;;;;0.40;0.40;;;7.40;99.90;;;;;;5079298;28;20504;-68
2022/10/13 03:33:53;;;;;;;0.40;0.40;;;7.40;99.90;;;;;;5091853;28;20427;-68
2022/10/13 03:36:41;;;;;;;0.40;0.40;;;7.40;99.90;;;;;;5093022;28;20433;-68
2022/10/13 03:39:29;;;;;;;0.40;0.40;;;7.40;99.90;;;;;;5093567;28;20426;-68
2022/10/13 03:42:17;;;;;;;0.40;0.40;;;7.50;99.90;;;;;;5094453;28;20423;-68
2022/10/13 03:45:07;;;;;;;0.40;0.40;;;7.50;99.90;;;;;;5092443;28;20606;-68
2022/10/13 03:47:57;;;;;;;0.40;0.40;;;7.40;99.90;;;;;;5078373;28;20447;-68
2022/10/13 03:50:45;;;;;;;0.50;0.50;;;7.40;99.90;;;;;;5076414;28;20969;-67
2022/10/13 03:53:33;;;;;;;0.40;0.40;;;7.30;99.90;;;;;;5075823;28;20522;-68
2022/10/13 03:56:23;;;;;;;0.40;0.40;;;7.30;99.90;;;;;;5075941;28;20510;-68
2022/10/13 03:59:15;;;;;;;0.40;0.40;;;7.30;99.90;;;;;;5080965;28;20458;-69
2022/10/13 04:02:03;;;;;;;0.40;0.40;;;7.30;99.90;;;;;;5076283;28;20514;-67
2022/10/13 04:04:53;;;;;;;0.40;0.40;;;7.50;99.90;;;;;;5075650;28;20471;-68
2022/10/13 04:07:41;;;;;;;0.40;0.40;;;7.40;99.90;;;;;;5074267;28;20452;-68
2022/10/13 04:10:29;;;;;;;0.40;0.40;;;7.50;99.90;;;;;;5074379;28;21021;-68
2022/10/13 04:13:17;;;;;;;0.40;0.40;;;7.40;99.90;;;;;;5074417;28;20427;-68
2022/10/13 04:16:07;;;;;;;0.40;0.40;;;7.40;99.90;;;;;;5075110;28;20947;-68
2022/10/13 04:18:57;;;;;;;0.40;0.40;;;7.30;99.90;;;;;;5074594;28;20535;-68
2022/10/13 04:21:47;;;;;;;1.53;1.53;;;7.30;99.90;;;;;;5074491;28;20455;-67
2022/10/13 04:24:35;;;;;;;0.40;0.40;;;7.30;99.90;;;;;;5074877;28;20462;-68
2022/10/13 04:27:23;;;;;;;0.40;0.40;;;7.30;99.90;;;;;;5075077;28;20475;-68
2022/10/13 04:30:12;;;;;;;0.40;0.40;;;7.30;99.90;;;;;;5075290;28;20419;-68
2022/10/13 04:33:01;;;;;;;1.73;1.60;;;7.30;99.90;;;;;;5083011;28;20434;-68
2022/10/13 04:35:49;;;;;;;0.40;0.40;;;7.30;99.90;;;;;;5093993;28;20511;-68
2022/10/13 04:38:39;;;;;;;0.40;0.40;;;7.20;99.90;;;;;;5094586;28;20436;-69
2022/10/13 04:41:27;;;;;;;0.40;0.40;;;7.20;99.90;;;;;;5094170;28;20497;-68
2022/10/13 04:44:15;;;;;;;0.40;0.40;;;7.30;99.90;;;;;;5093493;28;20534;-69
2022/10/13 04:47:03;;;;;;;0.50;0.50;;;7.20;99.90;;;;;;5093462;28;21030;-69
2022/10/13 04:49:51;;;;;;;0.40;0.40;;;7.30;99.90;;;;;;5092472;28;20443;-69
2022/10/13 04:52:39;;;;;;;0.40;0.40;;;7.30;99.90;;;;;;5093393;28;20450;-67
2022/10/13 04:55:28;;;;;;;0.40;0.40;;;7.10;99.90;;;;;;5093680;28;20527;-69
2022/10/13 04:58:16;;;;;;;0.40;0.40;;;7.20;99.90;;;;;;5092881;28;20478;-66
2022/10/13 05:01:14;;;;;;;0.40;0.40;;;7.30;99.90;;;;;;5091225;28;20495;-68
2022/10/13 05:04:09;;;;;;;0.40;0.40;;;7.30;99.90;;;;;;5094701;28;20444;-64
2022/10/13 05:06:57;;;;;;;0.40;0.40;;;7.20;99.90;;;;;;5093617;28;20857;-66
2022/10/13 05:10:05;;;;;;;0.40;0.40;;;7.20;99.90;;;;;;5095013;28;20465;-65
2022/10/13 05:12:54;;;;;;;0.40;0.40;;;7.20;99.90;;;;;;5093478;28;20422;-66
2022/10/13 05:15:42;;;;;;;0.40;0.40;;;7.20;99.90;;;;;;5094821;28;20458;-64
2022/10/13 05:18:30;;;;;;;0.40;0.40;;;7.20;99.90;;;;;;5094621;28;20534;-63
2022/10/13 05:21:21;;;;;;;0.40;0.40;;;7.10;99.90;;;;;;5093498;28;20487;-66
2022/10/13 05:24:12;;;;;;;0.40;0.40;;;7.10;99.90;;;;;;5093465;28;20439;-65
2022/10/13 05:27:00;;;;;;;0.40;0.40;;;7.10;99.90;;;;;;5093771;28;20221;-67
2022/10/13 05:29:50;;;;;;;0.40;0.40;;;7.20;99.90;;;;;;5092619;28;20977;-64
2022/10/13 05:32:38;;;;;;;0.40;0.40;;;7.20;99.90;;;;;;5092802;28;20439;-66
2022/10/13 05:35:27;;;;;;;0.40;0.40;;;7.10;99.90;;;;;;5089676;28;20495;-69
2022/10/13 05:38:15;;;;;;;0.40;0.40;;;7.10;99.90;;;;;;5074784;28;20538;-69
2022/10/13 05:41:05;;;;;;;0.40;0.40;;;7.00;99.90;;;;;;5080637;28;20446;-66
2022/10/13 05:43:56;;;;;;;0.40;0.40;;;7.00;99.90;;;;;;5072114;28;20458;-66
2022/10/13 05:46:45;;;;;;;0.40;0.40;;;7.00;99.90;;;;;;5071992;28;20471;-65
2022/10/13 05:49:35;;;;;;;0.40;0.40;;;7.00;99.90;;;;;;5064852;28;20434;-68
2022/10/13 05:52:25;;;;;;;2.03;1.90;;;7.00;99.90;;;;;;5071451;28;20452;-66
2022/10/13 05:55:17;;;;;;;0.40;0.40;;;7.00;99.90;;;;;;5069377;28;20430;-65
2022/10/13 05:58:05;;;;;;;0.40;0.40;;;7.10;99.90;;;;;;5088261;28;20453;-66
2022/10/13 06:00:54;;;;;;;0.40;0.40;;;6.90;99.90;;;;;;5073363;28;20704;-68
2022/10/13 06:03:44;;;;;;;0.40;0.40;;;7.10;99.90;;;;;;5070582;28;20429;-66
2022/10/13 06:06:32;;;;;;;0.40;0.40;;;7.10;99.90;;;;;;5066061;28;20490;-68
2022/10/13 06:09:21;;;;;;;0.70;0.70;;;7.20;99.90;;;;;;5050472;28;20574;-66
2022/10/13 06:12:10;;;;;;;0.40;0.40;;;7.30;99.90;;;;;;5067805;28;20427;-67
2022/10/13 06:14:58;;;;;;;0.40;0.40;;;7.30;99.90;;;;;;5062956;28;20423;-68
2022/10/13 06:17:46;;;;;;;0.40;0.40;;;7.30;99.90;;;;;;5061730;28;21065;-67
2022/10/13 06:20:36;;;;;;;0.40;0.40;;;7.40;99.90;;;;;;5063169;28;20884;-68
2022/10/13 06:23:24;;;;;;;0.50;0.50;;;7.50;99.90;;;;;;5065141;28;20801;-67
2022/10/13 06:26:12;;;;;;;0.40;0.40;;;7.50;99.90;;;;;;5067836;28;20621;-67
2022/10/13 06:29:00;;;;;;;19.20;18.10;;;7.50;99.90;;;;;;5062753;28;21042;-68
2022/10/13 06:31:49;;;;;;;0.40;0.40;;;7.60;99.90;;;;;;5068046;28;20844;-68
2022/10/13 06:34:37;;;;;;;0.40;0.40;;;7.60;99.90;;;;;;5059103;28;20443;-66
2022/10/13 06:37:27;;;;;;;0.40;0.40;;;7.70;99.90;;;;;;5057315;28;20436;-67
2022/10/13 06:40:16;;;;;;;16.87;4.73;;;7.80;99.90;;;;;;5051979;28;20430;-67
2022/10/13 06:43:04;;;;;;;0.40;0.40;;;7.80;99.90;;;;;;5061067;28;20514;-67
2022/10/13 06:45:52;;;;;;;0.40;0.40;;;7.80;99.90;;;;;;5066120;28;20487;-68
2022/10/13 06:48:40;;;;;;;0.40;0.40;;;7.90;99.90;;;;;;5063462;28;20917;-68
2022/10/13 06:51:29;;;;;;;0.60;0.60;;;8.00;99.90;;;;;;5066468;28;20526;-68
2022/10/13 06:54:18;;;;;;;0.40;0.40;;;8.00;99.90;;;;;;5066922;28;20456;-68
2022/10/13 06:57:06;;;;;;;0.40;0.40;;;8.00;99.90;;;;;;5065729;28;20510;-68
2022/10/13 06:59:54;;;;;;;0.40;0.40;;;8.00;99.90;;;;;;5069340;28;20899;-67
2022/10/13 07:02:43;;;;;;;0.40;0.40;;;8.00;99.90;;;;;;5068540;28;20435;-69
2022/10/13 07:05:32;;;;;;;0.40;0.40;;;8.00;99.90;;;;;;5059607;28;20490;-68
2022/10/13 07:08:20;;;;;;;0.40;0.40;;;8.10;99.90;;;;;;5053966;28;20542;-70
2022/10/13 07:11:13;;;;;;;0.40;0.40;;;8.20;99.90;;;;;;5055510;28;20900;-69
2022/10/13 07:14:03;;;;;;;0.90;0.87;;;8.40;99.90;;;;;;5070350;28;20443;-69
2022/10/13 07:16:51;;;;;;;0.40;0.40;;;8.40;99.90;;;;;;5066069;28;20953;-69
2022/10/13 07:19:40;;;;;;;0.40;0.40;;;8.60;99.90;;;;;;5068374;28;20442;-69
2022/10/13 07:22:28;;;;;;;0.40;0.40;;;8.60;99.90;;;;;;5064294;28;20572;-69
2022/10/13 07:25:16;;;;;;;0.40;0.40;;;8.70;99.90;;;;;;5065957;28;20798;-70
2022/10/13 07:28:06;;;;;;;0.40;0.40;;;8.80;99.90;;;;;;5073554;28;20459;-67
2022/10/13 07:30:54;;;;;;;0.40;0.40;;;8.90;99.90;;;;;;5073593;28;20477;-69
2022/10/13 07:33:44;;;;;;;0.40;0.40;;;9.00;99.90;;;;;;5070857;28;20424;-68
2022/10/13 07:36:34;;;;;;;0.40;0.40;;;9.00;99.90;;;;;;5066932;28;20460;-67
2022/10/13 07:39:22;;;;;;;0.40;0.40;;;9.10;99.90;;;;;;5073831;28;20510;-69
2022/10/13 07:42:10;;;;;;;0.40;0.40;;;9.20;99.90;;;;;;5067472;28;20506;-68
2022/10/13 07:45:00;;;;;;;0.40;0.40;;;9.40;99.90;;;;;;5055244;28;20926;-69
2022/10/13 07:47:48;;;;;;;0.40;0.40;;;9.60;99.90;;;;;;5085139;28;20522;-69
2022/10/13 07:50:36;;;;;;;0.50;0.50;;;9.80;99.90;;;;;;5079640;28;20470;-69
2022/10/13 07:53:24;;;;;;;0.40;0.40;;;10.00;99.90;;;;;;5053614;28;20919;-69
2022/10/13 07:56:15;;;;;;;0.40;0.40;;;10.10;99.90;;;;;;5055276;28;20862;-69
2022/10/13 07:59:04;;;;;;;0.40;0.40;;;10.10;99.90;;;;;;5068442;28;20535;-69
2022/10/13 08:01:53;;;;;;;0.40;0.40;;;10.40;99.90;;;;;;5066865;28;20427;-70
2022/10/13 08:04:41;;;;;;;0.40;0.40;;;10.60;99.90;;;;;;5069110;28;20434;-67
2022/10/13 08:07:29;;;;;;;0.50;0.50;;;10.70;99.90;;;;;;5066873;28;20860;-68
2022/10/13 08:10:18;;;;;;;0.40;0.40;;;10.80;99.90;;;;;;5059332;28;20522;-67
2022/10/13 08:13:06;;;;;;;0.40;0.40;;;10.90;99.90;;;;;;5066934;28;20549;-67
2022/10/13 08:15:54;;;;;;;0.40;0.40;;;11.00;99.90;;;;;;5059048;28;20971;-67
2022/10/13 08:18:44;;;;;;;0.40;0.40;;;11.00;99.90;;;;;;5062474;28;20475;-66
2022/10/13 08:21:32;;;;;;;0.40;0.40;;;11.10;99.90;;;;;;5060177;28;20509;-67
2022/10/13 08:24:41;;;;;;;0.40;0.40;;;11.20;99.90;;;;;;5068032;28;20888;-68
2022/10/13 08:27:29;;;;;;;0.40;0.40;;;11.40;99.90;;;;;;5066596;28;20608;-68
2022/10/13 08:30:37;;;;;;;0.40;0.40;;;11.60;99.90;;;;;;5060979;28;20811;-68
2022/10/13 08:33:26;;;;;;;0.40;0.40;;;11.70;99.90;;;;;;5056990;28;20428;-67
2022/10/13 08:36:16;;;;;;;0.40;0.40;;;11.80;99.90;;;;;;5058612;28;20467;-67
2022/10/13 08:39:05;;;;;;;0.40;0.40;;;11.90;99.90;;;;;;5063133;28;20558;-66
2022/10/13 08:41:55;;;;;;;0.40;0.40;;;11.90;99.90;;;;;;5061851;28;20481;-67
2022/10/13 08:44:46;;;;;;;0.40;0.40;;;12.00;99.90;;;;;;5058375;28;20485;-66
2022/10/13 08:47:58;;;;;;;0.40;0.40;;;12.00;99.90;;;;;;5072196;28;20592;-67
2022/10/13 08:50:51;;;;;;;0.40;0.40;;;12.20;99.90;;;;;;5073308;28;20431;-68
2022/10/13 08:53:43;;;;;;;0.40;0.40;;;12.20;99.90;;;;;;5074646;28;20514;-68
2022/10/13 08:56:34;;;;;;;0.40;0.40;;;12.30;99.90;;;;;;5072783;28;20430;-68
2022/10/13 08:59:23;;;;;;;0.40;0.40;;;12.40;99.90;;;;;;5067398;28;20513;-68
2022/10/13 09:02:15;;;;;;;0.40;0.40;;;12.40;99.90;;;;;;5073242;28;20442;-68
2022/10/13 09:05:09;;;;;;;0.40;0.40;;;12.50;99.90;;;;;;5064700;28;20478;-68
2022/10/13 09:07:59;;;;;;;0.40;0.40;;;12.60;99.90;;;;;;5064792;28;20467;-68
2022/10/13 09:10:50;;;;;;;0.40;0.40;;;12.60;99.90;;;;;;5065944;28;20501;-68
2022/10/13 09:13:39;;;;;;;0.40;0.40;;;12.70;99.90;;;;;;5052737;28;20460;-68
2022/10/13 09:16:33;;;;;;;2.63;2.43;;;12.90;99.90;;;;;;5064178;28;20424;-68
2022/10/13 09:19:25;;;;;;;0.40;0.40;;;13.00;99.90;;;;;;5070058;28;20441;-68
2022/10/13 09:22:15;;;;;;;0.60;0.60;;;13.10;99.90;;;;;;5053427;28;20964;-67
2022/10/13 09:25:22;;;;;;;0.40;0.40;;;13.20;99.90;;;;;;5056447;28;21170;-68
2022/10/13 09:28:18;;;;;;;0.40;0.40;;;11.50;99.90;;;;;;5065468;28;20463;-67
2022/10/13 09:31:13;;;;;;;0.40;0.40;;;13.30;99.90;;;;;;5056788;28;20439;-67
2022/10/13 09:34:12;;;;;;;0.40;0.40;;;13.40;99.90;;;;;;5054871;28;20440;-67
2022/10/13 09:37:02;;;;;;;0.40;0.40;;;13.60;99.90;;;;;;5064047;28;20507;-67
2022/10/13 09:40:02;;;;;;;0.40;0.40;;;13.70;99.90;;;;;;5071666;28;20522;-67
2022/10/13 09:42:51;;;;;;;0.40;0.40;;;13.80;99.90;;;;;;5072833;28;20423;-68
2022/10/13 09:45:43;;;;;;;0.40;0.40;;;13.90;99.90;;;;;;5061518;28;20909;-67
2022/10/13 09:48:34;;;;;;;0.40;0.40;;;14.00;99.90;;;;;;5061711;28;20513;-68
2022/10/13 09:51:36;;;;;;;0.40;0.40;;;14.20;99.90;;;;;;5067092;28;20435;-67
2022/10/13 09:54:27;;;;;;;1.40;1.40;;;14.30;99.90;;;;;;5060451;28;20501;-69
2022/10/13 09:57:23;;;;;;;0.40;0.40;;;14.60;99.90;;;;;;5060600;28;20980;-69
2022/10/13 10:00:16;;;;;;;0.40;0.40;;;14.60;99.90;;;;;;5083408;28;20427;-68
2022/10/13 10:03:14;;;;;;;0.60;0.60;;;14.70;99.90;;;;;;5081984;28;20232;-68
2022/10/13 10:06:06;;;;;;;0.40;0.40;;;14.80;99.90;;;;;;5085933;28;20465;-67
2022/10/13 10:08:58;;;;;;;1.13;1.13;;;14.80;99.90;;;;;;5083441;28;20447;-67
2022/10/13 10:11:54;;;;;;;0.40;0.40;;;14.90;99.90;;;;;;5088636;28;20522;-68
2022/10/13 10:14:42;;;;;;;0.83;0.70;;;15.00;99.90;;;;;;5076168;28;20462;-67
2022/10/13 10:17:40;;;;;;;0.40;0.40;;;15.00;99.90;;;;;;5073021;28;20225;-68
2022/10/13 10:20:58;;;;;;;0.40;0.40;;;15.10;99.90;;;;;;5084201;28;20495;-69
2022/10/13 10:24:18;;;;;;;0.40;0.40;;;15.20;99.90;;;;;;5072140;28;20205;-67
2022/10/13 10:27:29;;;;;;;0.40;0.40;;;15.50;99.90;;;;;;5080240;28;20483;-67
2022/10/13 10:30:43;;;;;;;0.40;0.40;;;15.50;99.90;;;;;;5064807;28;20201;-72
2022/10/13 10:33:55;;;;;;;0.40;0.40;;;15.70;99.90;;;;;;5058416;28;20205;-71
2022/10/13 10:36:55;;;;;;;0.40;0.40;;;15.90;99.90;;;;;;5067221;28;20205;-71
2022/10/13 10:40:05;;;;;;;1.90;0.80;;;15.90;99.90;;;;;;5069907;28;20267;-68
2022/10/13 10:43:28;;;;;;;0.40;0.40;;;16.10;99.90;;;;;;5071258;28;20201;-69
2022/10/13 10:46:21;;;;;;;1.33;1.27;;;16.20;99.90;;;;;;5068724;28;20209;-72
2022/10/13 10:49:23;;;;;;;0.40;0.40;;;16.20;99.90;;;;;;5072502;28;20694;-68
2022/10/13 10:52:24;;;;;;;0.40;0.40;;;16.20;99.90;;;;;;5071308;28;20201;-68
2022/10/13 10:55:24;;;;;;;0.40;0.40;;;16.20;99.90;;;;;;5079937;28;20201;-68
2022/10/13 10:58:26;;;;;;;0.40;0.40;;;16.20;99.90;;;;;;5081982;28;20287;-68
2022/10/13 11:01:27;;;;;;;3.25;2.85;;;16.20;99.90;;;;;;5074181;28;20204;-68
2022/10/13 11:04:39;;;;;;;0.53;0.53;;;16.10;99.90;;;;;;5093072;28;20201;-68
2022/10/13 11:07:57;;;;;;;0.40;0.40;;;16.10;99.90;;;;;;5093046;28;20220;-68
2022/10/13 11:10:48;;;;;;;1.80;1.80;;;16.10;99.90;;;;;;5074377;28;20201;-68
2022/10/13 11:13:54;;;;;;;0.40;0.40;;;16.10;99.90;;;;;;5088575;28;20200;-68
2022/10/13 11:17:09;;;;;;;0.40;0.40;;;16.20;99.90;;;;;;5089641;28;20181;-68
2022/10/13 11:20:44;;;;;;;0.70;0.68;;;16.20;99.90;;;;;;5077712;28;20220;-68
2022/10/13 11:23:46;;;;;;;0.40;0.40;;;16.30;99.90;;;;;;5077891;28;20201;-68
2022/10/13 11:26:46;;;;;;;1.00;0.75;;;16.30;99.90;;;;;;5089610;28;20222;-68
2022/10/13 11:29:53;;;;;;;2.40;1.80;;;16.40;99.90;;;;;;5079011;28;20232;-70
2022/10/13 11:33:08;;;;;;;1.95;1.85;;;16.40;99.90;;;;;;5075399;28;20205;-68
2022/10/13 11:35:59;;;;;;;0.47;0.47;;;16.50;99.90;;;;;;5074911;28;20228;-68
2022/10/13 11:39:02;;;;;;;0.40;0.40;;;16.60;99.90;;;;;;5084281;28;20221;-68
2022/10/13 11:41:58;;;;;;;0.43;0.40;;;16.50;99.90;;;;;;5095473;28;20655;-68
2022/10/13 11:44:54;;;;;;;0.40;0.40;;;16.60;99.90;;;;;;5071321;28;20288;-67
2022/10/13 11:48:17;;;;;;;1.10;1.07;;;16.70;99.90;;;;;;5056463;28;20221;-68
2022/10/13 11:51:24;;;;;;;0.60;0.60;;;16.70;99.90;;;;;;5056331;28;20224;-68
2022/10/13 11:54:25;;;;;;;0.93;0.93;;;16.80;99.90;;;;;;5056562;28;20205;-68
2022/10/13 11:57:20;;;;;;;0.73;0.73;;;16.90;99.90;;;;;;5059234;28;20275;-68
2022/10/13 12:00:19;;;;;;;0.40;0.40;;;17.00;99.90;;;;;;5069699;28;20193;-67
2022/10/13 12:03:28;;;;;;;0.40;0.40;;;17.00;99.90;;;;;;5065221;28;20201;-67
2022/10/13 12:06:34;;;;;;;0.40;0.40;;;17.10;99.90;;;;;;5062884;28;20619;-67
2022/10/13 12:09:27;;;;;;;3.88;1.70;;;17.20;99.90;;;;;;5067910;28;20219;-67
2022/10/13 12:12:18;;;;;;;0.50;0.50;;;17.20;99.90;;;;;;5060284;28;20205;-68
2022/10/13 12:15:34;;;;;;;0.40;0.40;;;17.20;99.90;;;;;;5058516;28;20197;-68
2022/10/13 12:18:32;;;;;;;0.40;0.40;;;17.10;99.90;;;;;;5061908;28;20225;-67
2022/10/13 12:21:30;;;;;;;1.25;0.75;;;17.10;99.90;;;;;;5063104;28;20189;-67
2022/10/13 12:24:23;;;;;;;0.40;0.40;;;17.10;99.90;;;;;;5070650;28;20621;-67
2022/10/13 12:27:22;;;;;;;0.40;0.40;;;17.10;99.90;;;;;;5075113;28;20209;-67
2022/10/13 12:30:22;;;;;;;0.40;0.40;;;17.10;99.90;;;;;;5066816;28;20212;-68
2022/10/13 12:33:28;;;;;;;0.40;0.40;;;16.40;99.90;;;;;;5073558;28;20203;-67
2022/10/13 12:36:20;;;;;;;0.40;0.40;;;17.00;99.90;;;;;;5073618;28;20574;-68
2022/10/13 12:39:14;;;;;;;0.40;0.40;;;17.10;99.90;;;;;;5073272;28;21051;-67
2022/10/13 12:42:16;;;;;;;0.40;0.40;;;17.00;99.90;;;;;;5066621;28;20198;-67
2022/10/13 12:45:19;;;;;;;1.53;1.43;;;17.10;99.90;;;;;;5065526;28;20216;-66
2022/10/13 12:48:29;;;;;;;0.60;0.60;;;16.90;99.90;;;;;;5073709;28;20213;-67
2022/10/13 12:51:32;;;;;;;0.40;0.40;;;17.00;99.90;;;;;;5073157;28;20203;-67
2022/10/13 12:54:28;;;;;;;0.80;0.80;;;17.00;99.90;;;;;;5072349;28;20673;-66
2022/10/13 12:57:34;;;;;;;0.40;0.40;;;17.00;99.90;;;;;;5054367;28;20737;-67
2022/10/13 13:00:26;;;;;;;0.68;0.60;;;17.00;99.90;;;;;;5053324;28;20208;-67
2022/10/13 13:03:27;;;;;;;0.40;0.40;;;17.00;99.90;;;;;;5053809;28;20197;-67
2022/10/13 13:06:35;;;;;;;2.25;2.15;;;17.00;99.90;;;;;;5053267;28;20678;-67
2022/10/13 13:09:28;;;;;;;0.50;0.50;;;17.00;99.90;;;;;;5071522;28;20216;-67
2022/10/13 13:12:27;;;;;;;0.77;0.77;;;16.90;99.90;;;;;;5071826;28;20256;-68
2022/10/13 13:15:38;;;;;;;0.40;0.40;;;16.80;99.90;;;;;;5064857;28;20209;-68
2022/10/13 13:18:40;;;;;;;0.40;0.40;;;16.70;99.90;;;;;;5061277;28;20306;-67
2022/10/13 13:21:29;;;;;;;0.40;0.40;;;16.70;99.90;;;;;;5053925;28;20258;-68
2022/10/13 13:24:18;;;;;;;0.40;0.40;;;16.70;99.90;;;;;;5054445;28;20205;-67
2022/10/13 13:27:31;;;;;;;0.40;0.40;;;16.70;99.90;;;;;;5053960;28;20231;-68
2022/10/13 13:30:22;;;;;;;0.40;0.40;;;16.80;99.90;;;;;;5052987;28;20279;-68
2022/10/13 13:33:12;;;;;;;1.15;1.15;;;16.90;99.90;;;;;;5053795;28;20583;-68
2022/10/13 13:36:03;;;;;;;0.40;0.40;;;17.00;99.90;;;;;;5053136;28;20197;-68
2022/10/13 13:38:56;;;;;;;0.40;0.40;;;17.10;99.90;;;;;;5054191;28;20221;-68
2022/10/13 13:41:50;;;;;;;0.75;0.68;;;17.30;99.90;;;;;;5058120;28;20197;-68
2022/10/13 13:44:39;;;;;;;0.40;0.40;;;17.40;99.90;;;;;;5051935;28;20205;-68
2022/10/13 13:47:28;;;;;;;0.40;0.40;;;17.60;99.90;;;;;;5061839;28;20706;-68
2022/10/13 13:50:43;;;;;;;0.40;0.40;;;17.80;99.90;;;;;;5060723;28;20249;-68
2022/10/13 13:53:49;;;;;;;0.40;0.40;;;18.20;99.90;;;;;;5062849;28;20212;-68
2022/10/13 13:56:39;;;;;;;0.40;0.40;;;18.50;99.90;;;;;;5057671;28;20330;-68
2022/10/13 13:59:35;;;;;;;0.40;0.40;;;19.00;99.90;;;;;;5072274;28;20279;-68
2022/10/13 14:02:31;;;;;;;0.40;0.40;;;19.80;99.90;;;;;;5062066;28;20221;-68
2022/10/13 14:05:26;;;;;;;0.40;0.40;;;20.90;99.90;;;;;;5053696;28;20219;-68
2022/10/13 14:08:19;;;;;;;0.40;0.40;;;21.70;99.90;;;;;;5051419;28;20228;-68
2022/10/13 14:11:11;;;;;;;0.40;0.40;;;22.40;99.90;;;;;;5051977;28;20201;-69
2022/10/13 14:14:03;;;;;;;0.40;0.40;;;22.70;99.90;;;;;;5053816;28;20587;-68
2022/10/13 14:16:54;;;;;;;0.40;0.40;;;22.60;99.90;;;;;;5051745;28;20595;-68
2022/10/13 14:19:44;;;;;;;0.90;0.85;;;22.40;99.90;;;;;;5051162;28;20212;-68
2022/10/13 14:22:37;;;;;;;0.40;0.40;;;22.00;99.90;;;;;;5053099;28;20689;-68
2022/10/13 14:25:25;;;;;;;1.30;1.20;;;22.30;99.90;;;;;;5055519;28;20201;-68
2022/10/13 14:28:20;;;;;;;0.40;0.40;;;24.10;99.90;;;;;;5063367;28;20221;-68
2022/10/13 14:31:19;;;;;;;0.40;0.40;;;24.40;99.90;;;;;;5061345;28;20304;-68
2022/10/13 14:34:11;;;;;;;1.52;1.52;;;24.80;99.90;;;;;;5060298;28;20677;-68
2022/10/13 14:37:15;;;;;;;0.40;0.40;;;25.30;99.90;;;;;;5062685;28;20205;-69
2022/10/13 14:40:11;;;;;;;0.40;0.40;;;25.20;99.90;;;;;;5061408;28;20203;-68
2022/10/13 14:43:11;;;;;;;0.40;0.40;;;24.90;99.90;;;;;;5057317;28;20280;-68
2022/10/13 14:46:06;;;;;;;0.40;0.40;;;24.10;99.90;;;;;;5061408;28;20580;-68
2022/10/13 14:48:56;;;;;;;0.40;0.40;;;22.80;99.90;;;;;;5061134;28;20263;-68
2022/10/13 14:51:50;;;;;;;0.40;0.40;;;21.60;99.90;;;;;;5062780;28;20223;-68
2022/10/13 14:54:38;;;;;;;0.50;0.50;;;19.70;99.90;;;;;;5085227;22;20238;-70
2022/10/13 14:57:33;;;;;;;0.40;0.40;;;19.60;99.90;;;;;;5091536;28;20200;-71
2022/10/13 15:00:21;;;;;;;0.40;0.40;;;19.00;99.90;;;;;;5091164;28;20202;-72
2022/10/13 15:03:09;;;;;;;0.40;0.40;;;18.50;99.90;;;;;;5091784;28;20200;-70
2022/10/13 15:05:58;;;;;;;0.40;0.40;;;18.20;99.90;;;;;;5089844;28;20224;-70
2022/10/13 15:08:48;;;;;;;0.40;0.40;;;17.90;99.90;;;;;;5092584;28;20208;-69
2022/10/13 15:11:36;;;;;;;0.40;0.40;;;17.80;99.90;;;;;;5093520;28;20672;-72